Blountstown, Florida
Current Conditions -  °F | °C
As of 3:53 PM on Saturday 20 Dec 2014 (Local Time) from KMAI Reporting Station
Light Rain Light Rain  
Wind Chill: 13°   Ceiling: 7000
Heat Index: 13°   Visibility: 10mi
Dew Point: 12°   Wind: 3mph
Humidity: 93%   Direction: 60°ENE
Pressure: 30.11"   Gusts: NA
Location:  30.44°N, 85.05°W
Report Text: KMAI 202153Z AUTO 06003KT 10SM -RA FEW050 BKN070 OVC085 13/12 A3011 RMK AO2 RAB51 SLP195 P0000 T01330122 $
Loading
Personal Weather Stations






























Interactive Weather Map New forecast layout! Learn more

10-Day Weather Forecast

Advertisements
Track Severe Weather on mobile